Time;durP1;ratioP1;P1;durP2;ratioP2;P2;SDS_P1;SDS_P2;PMS_P1;PMS_P2;Temp;Humidity;BMP_temperature;BMP_pressure;BME280_temperature;BME280_humidity;BME280_pressure;Samples;Min_cycle;Max_cycle;Signal;HPM_P1;HPM_P2
2022/08/11 00:02:26;;;;;;;3.88;1.58;;;;;;;;;;7387421;19;20373;-64
2022/08/11 00:04:54;;;;;;;2.72;1.45;;;;;;;;;;7387334;19;19998;-64
2022/08/11 00:07:19;;;;;;;2.22;1.60;;;;;;;;;;7388353;19;20432;-64
2022/08/11 00:09:46;;;;;;;1.88;1.55;;;;;;;;;;7388004;19;20023;-64
2022/08/11 00:12:14;;;;;;;2.92;1.80;;;;;;;;;;7388024;19;20023;-63
2022/08/11 00:14:42;;;;;;;3.40;1.70;;;;;;;;;;7380196;19;20464;-63
2022/08/11 00:17:10;;;;;;;2.20;1.58;;;;;;;;;;7384591;19;20018;-63
2022/08/11 00:19:47;;;;;;;2.30;1.70;;;;;;;;;;7385147;19;20003;-62
2022/08/11 00:22:20;;;;;;;1.80;1.38;;;;;;;;;;7384159;19;20006;-63
2022/08/11 00:24:46;;;;;;;2.53;1.80;;;;;;;;;;7384781;19;20013;-62
2022/08/11 00:27:12;;;;;;;2.90;1.70;;;;;;;;;;7385385;19;19994;-63
2022/08/11 00:29:37;;;;;;;2.08;1.45;;;;;;;;;;7384635;19;20513;-63
2022/08/11 00:32:05;;;;;;;3.35;1.73;;;;;;;;;;7388089;19;19999;-63
2022/08/11 00:34:34;;;;;;;3.22;1.85;;;;;;;;;;7386537;19;20086;-63
2022/08/11 00:37:04;;;;;;;3.78;1.60;;;;;;;;;;7388202;19;20635;-63
2022/08/11 00:39:33;;;;;;;2.80;1.50;;;;;;;;;;7386187;19;20030;-62
2022/08/11 00:42:24;;;;;;;2.47;1.77;;;;;;;;;;7385333;19;19998;-62
2022/08/11 00:45:12;;;;;;;1.95;1.63;;;;;;;;;;7383691;19;20700;-62
2022/08/11 00:48:06;;;;;;;1.90;1.23;;;;;;;;;;7387484;19;20076;-62
2022/08/11 00:51:04;;;;;;;2.75;1.70;;;;;;;;;;7385302;19;20036;-64
2022/08/11 00:54:17;;;;;;;2.15;1.60;;;;;;;;;;7384539;19;20006;-62
2022/08/11 00:56:51;;;;;;;1.48;1.38;;;;;;;;;;7385685;19;19999;-62
2022/08/11 00:59:38;;;;;;;2.25;1.50;;;;;;;;;;7384745;19;19998;-62
2022/08/11 01:02:37;;;;;;;1.85;1.50;;;;;;;;;;7387018;19;20091;-62
2022/08/11 01:05:15;;;;;;;2.28;1.50;;;;;;;;;;7385946;19;20850;-62
2022/08/11 01:08:08;;;;;;;2.90;1.80;;;;;;;;;;7387120;19;20003;-63
2022/08/11 01:11:11;;;;;;;3.47;1.90;;;;;;;;;;7384201;19;20006;-62
2022/08/11 01:14:04;;;;;;;2.13;1.42;;;;;;;;;;7385894;19;19998;-62
2022/08/11 01:16:51;;;;;;;1.95;1.45;;;;;;;;;;7385006;19;20002;-62
2022/08/11 01:19:35;;;;;;;3.22;2.00;;;;;;;;;;7386741;19;20006;-63
2022/08/11 01:22:19;;;;;;;3.47;1.90;;;;;;;;;;7384256;19;19999;-62
2022/08/11 01:25:05;;;;;;;3.85;1.80;;;;;;;;;;7387167;19;20338;-62
2022/08/11 01:27:56;;;;;;;3.35;1.70;;;;;;;;;;7386230;19;19999;-62
2022/08/11 01:31:06;;;;;;;3.25;1.80;;;;;;;;;;7388313;19;20003;-63
2022/08/11 01:33:50;;;;;;;2.13;1.57;;;;;;;;;;7384577;19;20406;-62
2022/08/11 01:36:39;;;;;;;2.40;1.80;;;;;;;;;;7382978;19;20038;-63
2022/08/11 01:39:29;;;;;;;3.08;1.67;;;;;;;;;;7386708;19;20062;-62
2022/08/11 01:45:19;;;;;;;2.17;1.65;;;;;;;;;;7385970;19;20023;-62
2022/08/11 01:48:36;;;;;;;3.35;1.95;;;;;;;;;;7385853;19;19994;-62
2022/08/11 01:51:12;;;;;;;2.30;1.50;;;;;;;;;;7381975;19;19995;-62
2022/08/11 01:53:53;;;;;;;2.55;1.80;;;;;;;;;;7383508;19;20339;-62
2022/08/11 01:56:18;;;;;;;;;;;;;;;;;;7383351;19;19999;-62
2022/08/11 01:58:56;;;;;;;1.80;1.37;;;;;;;;;;7384330;19;19911;-62
2022/08/11 02:01:36;;;;;;;2.10;1.60;;;;;;;;;;7387319;19;20022;-62
2022/08/11 02:04:41;;;;;;;2.28;1.63;;;;;;;;;;7386554;19;20016;-62
2022/08/11 02:07:16;;;;;;;2.50;1.90;;;;;;;;;;7385328;19;20018;-62
2022/08/11 02:09:55;;;;;;;2.05;1.48;;;;;;;;;;7384892;19;20003;-62
2022/08/11 02:12:40;;;;;;;3.05;1.83;;;;;;;;;;7386014;19;20074;-62
2022/08/11 02:15:19;;;;;;;3.05;2.00;;;;;;;;;;7385184;19;20006;-62
2022/08/11 02:17:52;;;;;;;4.25;1.65;;;;;;;;;;7385067;19;20005;-63
2022/08/11 02:23:38;;;;;;;2.22;1.52;;;;;;;;;;7386025;19;20011;-62
2022/08/11 02:26:21;;;;;;;3.03;1.98;;;;;;;;;;7383543;19;20018;-63
2022/08/11 02:28:58;;;;;;;2.55;1.70;;;;;;;;;;7383265;19;20002;-62
2022/08/11 02:34:41;;;;;;;4.40;1.80;;;;;;;;;;7383400;19;20096;-63
2022/08/11 02:37:23;;;;;;;2.28;1.70;;;;;;;;;;7386951;19;20504;-62
2022/08/11 02:39:57;;;;;;;3.33;1.90;;;;;;;;;;7390673;19;20604;-62
2022/08/11 02:42:51;;;;;;;1.58;1.38;;;;;;;;;;7391284;19;19995;-62
2022/08/11 02:45:35;;;;;;;3.58;1.95;;;;;;;;;;7389857;19;20058;-62
2022/08/11 02:51:27;;;;;;;2.70;1.70;;;;;;;;;;7389687;19;20460;-62
2022/08/11 02:54:16;;;;;;;2.90;1.90;;;;;;;;;;7388128;19;20494;-62
2022/08/11 02:56:44;;;;;;;2.78;1.67;;;;;;;;;;7391401;19;20016;-62
2022/08/11 03:02:23;;;;;;;3.05;1.77;;;;;;;;;;7391238;19;20348;-62
2022/08/11 03:05:00;;;;;;;2.42;1.70;;;;;;;;;;7388303;19;20032;-62
2022/08/11 03:07:55;;;;;;;3.30;1.77;;;;;;;;;;7390634;19;19999;-63
2022/08/11 03:10:39;;;;;;;2.40;1.70;;;;;;;;;;7389429;19;20309;-62
2022/08/11 03:16:46;;;;;;;2.85;1.85;;;;;;;;;;7388878;19;20073;-64
2022/08/11 03:19:17;;;;;;;2.70;1.67;;;;;;;;;;7394181;19;20036;-64
2022/08/11 03:22:04;;;;;;;2.92;1.83;;;;;;;;;;7388946;19;19998;-63
2022/08/11 03:24:45;;;;;;;3.97;2.03;;;;;;;;;;7387782;19;20448;-64
2022/08/11 03:27:34;;;;;;;;;;;;;;;;;;7395637;19;20539;-64
2022/08/11 03:30:10;;;;;;;2.38;1.60;;;;;;;;;;7387261;19;20250;-63
2022/08/11 03:36:20;;;;;;;2.80;1.88;;;;;;;;;;7388476;19;20001;-63
2022/08/11 03:39:01;;;;;;;3.67;1.83;;;;;;;;;;7392687;19;20448;-63
2022/08/11 03:41:43;;;;;;;2.85;1.77;;;;;;;;;;7386358;19;20002;-63
2022/08/11 03:44:24;;;;;;;2.88;1.92;;;;;;;;;;7389844;19;19999;-63
2022/08/11 03:47:05;;;;;;;3.28;1.90;;;;;;;;;;7390676;19;19999;-63
2022/08/11 03:49:56;;;;;;;3.22;2.05;;;;;;;;;;7388005;19;20062;-63
2022/08/11 03:52:39;;;;;;;5.53;1.83;;;;;;;;;;7389335;19;20009;-63
2022/08/11 03:55:17;;;;;;;2.35;1.70;;;;;;;;;;7388538;19;20009;-63
2022/08/11 03:57:52;;;;;;;2.30;1.70;;;;;;;;;;7389644;19;20572;-63
2022/08/11 04:00:51;;;;;;;2.78;1.60;;;;;;;;;;7388463;19;20357;-63
2022/08/11 04:03:46;;;;;;;2.85;1.90;;;;;;;;;;7387829;19;20009;-63
2022/08/11 04:06:43;;;;;;;2.17;1.75;;;;;;;;;;7387608;19;20002;-63
2022/08/11 04:09:30;;;;;;;2.83;1.80;;;;;;;;;;7389533;19;20005;-63
2022/08/11 04:12:16;;;;;;;2.67;1.80;;;;;;;;;;7388359;19;20070;-63
2022/08/11 04:18:39;;;;;;;2.22;1.70;;;;;;;;;;7389447;19;20494;-63
2022/08/11 04:21:33;;;;;;;1.85;1.52;;;;;;;;;;7386560;19;19998;-63
2022/08/11 04:24:07;;;;;;;2.78;2.00;;;;;;;;;;7389078;19;20015;-63
2022/08/11 04:26:35;;;;;;;4.45;2.20;;;;;;;;;;7386386;19;20022;-63
2022/08/11 04:29:13;;;;;;;2.63;1.92;;;;;;;;;;7388767;19;20374;-63
2022/08/11 04:32:08;;;;;;;4.03;2.72;;;;;;;;;;7388940;19;19999;-62
2022/08/11 04:34:42;;;;;;;4.68;2.80;;;;;;;;;;7386693;19;20356;-62
2022/08/11 04:37:35;;;;;;;3.08;1.90;;;;;;;;;;7389930;19;20019;-63
2022/08/11 04:40:37;;;;;;;3.28;2.00;;;;;;;;;;7389193;19;20384;-62
2022/08/11 04:43:22;;;;;;;3.80;1.80;;;;;;;;;;7392646;19;19994;-64
2022/08/11 04:46:02;;;;;;;2.50;1.65;;;;;;;;;;7389719;19;20085;-62
2022/08/11 05:01:40;;;;;;;5.55;3.03;;;;;;;;;;7263950;19;1004965;-63
2022/08/11 05:05:29;;;;;;;3.50;2.03;;;;;;;;;;7389716;19;20412;-63
2022/08/11 05:07:15;;;;;;;5.50;2.20;;;;;;;;;;7387771;19;20372;-63
2022/08/11 05:10:07;;;;;;;2.90;1.98;;;;;;;;;;7389186;19;20097;-63
2022/08/11 05:12:47;;;;;;;3.25;1.83;;;;;;;;;;7386063;19;20647;-63
2022/08/11 05:35:44;;;;;;;2.45;1.60;;;;;;;;;;7388745;19;20018;-63
2022/08/11 05:58:07;;;;;;;3.03;1.73;;;;;;;;;;7387205;19;20005;-64
2022/08/11 06:00:53;;;;;;;3.22;1.80;;;;;;;;;;7386412;19;20349;-64
2022/08/11 06:03:25;;;;;;;3.42;1.70;;;;;;;;;;7385745;19;20420;-63
2022/08/11 06:05:51;;;;;;;3.38;1.92;;;;;;;;;;7388832;19;20535;-64
2022/08/11 06:08:17;;;;;;;2.60;1.75;;;;;;;;;;7382809;19;19991;-64
2022/08/11 06:10:44;;;;;;;2.90;1.70;;;;;;;;;;7384919;19;20073;-65
2022/08/11 06:13:14;;;;;;;1.50;1.40;;;;;;;;;;7388420;19;20015;-65
2022/08/11 06:15:48;;;;;;;2.35;1.80;;;;;;;;;;7393733;19;20013;-64
2022/08/11 06:18:14;;;;;;;2.03;1.70;;;;;;;;;;7390623;19;20019;-64
2022/08/11 06:20:49;;;;;;;4.22;2.35;;;;;;;;;;7388120;19;20019;-64
2022/08/11 06:23:22;;;;;;;2.47;1.85;;;;;;;;;;7392519;19;19994;-64
2022/08/11 06:25:48;;;;;;;3.25;2.03;;;;;;;;;;7387713;19;20026;-64
2022/08/11 06:28:17;;;;;;;2.80;1.90;;;;;;;;;;7393276;19;20005;-65
2022/08/11 06:30:45;;;;;;;5.47;1.90;;;;;;;;;;7384663;19;20006;-64
2022/08/11 06:33:18;;;;;;;3.53;1.80;;;;;;;;;;7390348;19;20502;-64
2022/08/11 06:36:05;;;;;;;2.10;1.58;;;;;;;;;;7389976;19;20420;-63
2022/08/11 06:38:53;;;;;;;2.65;1.70;;;;;;;;;;7391406;19;20010;-63
2022/08/11 06:41:37;;;;;;;2.22;1.73;;;;;;;;;;7391470;19;20013;-63
2022/08/11 06:44:11;;;;;;;2.80;1.73;;;;;;;;;;7393917;19;20084;-65
2022/08/11 06:46:43;;;;;;;2.35;1.63;;;;;;;;;;7391040;19;20492;-65
2022/08/11 06:52:01;;;;;;;2.05;1.60;;;;;;;;;;7393109;19;20022;-63
2022/08/11 06:54:40;;;;;;;2.72;1.80;;;;;;;;;;7388923;19;20022;-63
2022/08/11 07:02:47;;;;;;;3.15;1.70;;;;;;;;;;7393379;19;20095;-63
2022/08/11 07:05:21;;;;;;;2.05;1.50;;;;;;;;;;7391597;19;20002;-63
2022/08/11 07:16:48;;;;;;;4.65;2.55;;;;;;;;;;7394316;19;20017;-64
2022/08/11 07:30:36;;;;;;;2.72;1.50;;;;;;;;;;7392045;19;20006;-64
2022/08/11 07:33:03;;;;;;;2.35;1.80;;;;;;;;;;7392102;19;20002;-66
2022/08/11 07:35:37;;;;;;;6.00;2.03;;;;;;;;;;7389977;19;20511;-67
2022/08/11 07:38:06;;;;;;;4.32;1.90;;;;;;;;;;7375012;19;20387;-68
2022/08/11 07:40:32;;;;;;;3.05;1.73;;;;;;;;;;7382825;19;19998;-68
2022/08/11 07:42:59;;;;;;;2.42;1.70;;;;;;;;;;7384587;19;20098;-69
2022/08/11 07:53:41;;;;;;;1.88;1.55;;;;;;;;;;7387845;19;20090;-68
2022/08/11 07:56:06;;;;;;;1.77;1.50;;;;;;;;;;7383886;19;20551;-66
2022/08/11 08:18:00;;;;;;;1.83;1.58;;;;;;;;;;7386517;19;20017;-68
2022/08/11 08:20:30;;;;;;;2.17;1.50;;;;;;;;;;7386489;19;20058;-68
2022/08/11 08:22:58;;;;;;;2.40;1.57;;;;;;;;;;7382717;19;20011;-68
2022/08/11 08:25:29;;;;;;;2.45;1.63;;;;;;;;;;7386246;19;20019;-68
2022/08/11 08:27:57;;;;;;;1.88;1.55;;;;;;;;;;7387069;19;20464;-68
2022/08/11 08:33:10;;;;;;;2.65;1.60;;;;;;;;;;7385704;19;20086;-67
2022/08/11 08:35:36;;;;;;;2.60;1.73;;;;;;;;;;7382677;19;20003;-67
2022/08/11 08:38:02;;;;;;;1.52;1.27;;;;;;;;;;7383898;19;20013;-68
2022/08/11 08:40:28;;;;;;;2.13;1.55;;;;;;;;;;7383564;19;20008;-67
2022/08/11 08:43:03;;;;;;;2.53;1.60;;;;;;;;;;7383509;19;20002;-67
2022/08/11 08:45:33;;;;;;;2.80;1.95;;;;;;;;;;7383101;19;20419;-67
2022/08/11 08:48:00;;;;;;;;;;;;;;;;;;7384706;19;20029;-68
2022/08/11 08:51:32;;;;;;;1.95;1.52;;;;;;;;;;7316467;19;20006;-73
2022/08/11 08:53:23;;;;;;;3.10;1.80;;;;;;;;;;7384421;19;20010;-74
2022/08/11 08:55:50;;;;;;;1.55;1.33;;;;;;;;;;7385101;19;20606;-71
2022/08/11 08:58:19;;;;;;;1.42;1.30;;;;;;;;;;7386235;19;19998;-74
2022/08/11 09:00:46;;;;;;;1.50;1.40;;;;;;;;;;7381691;19;20002;-68
2022/08/11 09:03:12;;;;;;;3.33;2.15;;;;;;;;;;7385174;19;20024;-65
2022/08/11 09:05:38;;;;;;;2.45;1.67;;;;;;;;;;7384075;19;19998;-72
2022/08/11 09:08:03;;;;;;;3.50;2.25;;;;;;;;;;7384122;19;20301;-67
2022/08/11 09:10:29;;;;;;;4.15;1.63;;;;;;;;;;7381918;19;20007;-67
2022/08/11 09:12:56;;;;;;;2.65;1.80;;;;;;;;;;7383983;19;20050;-73
2022/08/11 09:15:22;;;;;;;2.17;1.60;;;;;;;;;;7380706;19;20349;-74
2022/08/11 09:17:52;;;;;;;2.50;1.50;;;;;;;;;;7380899;19;20010;-74
2022/08/11 09:20:20;;;;;;;;;;;;;;;;;;7382316;19;20473;-76
2022/08/11 09:28:19;;;;;;;2.00;1.73;;;;;;;;;;7383401;19;20002;-76
2022/08/11 09:30:47;;;;;;;2.63;1.70;;;;;;;;;;7383909;19;20005;-76
2022/08/11 09:33:15;;;;;;;2.28;1.50;;;;;;;;;;7384220;19;20003;-77
2022/08/11 09:35:42;;;;;;;1.95;1.50;;;;;;;;;;7384208;19;20649;-74
2022/08/11 09:40:56;;;;;;;1.77;1.48;;;;;;;;;;7382894;19;20037;-76
2022/08/11 09:46:08;;;;;;;2.00;1.50;;;;;;;;;;7389937;19;20454;-75
2022/08/11 09:48:44;;;;;;;2.97;1.60;;;;;;;;;;7396227;19;20711;-77
2022/08/11 09:51:11;;;;;;;2.35;1.60;;;;;;;;;;7394674;19;20009;-77
2022/08/11 09:53:42;;;;;;;1.50;1.40;;;;;;;;;;7395494;19;20027;-77
2022/08/11 09:59:05;;;;;;;1.77;1.40;;;;;;;;;;7396014;19;20021;-75
2022/08/11 10:01:40;;;;;;;1.67;1.40;;;;;;;;;;7396085;19;20005;-75
2022/08/11 10:04:14;;;;;;;2.20;1.45;;;;;;;;;;7395165;19;20365;-76
2022/08/11 10:09:26;;;;;;;3.05;1.73;;;;;;;;;;7397479;19;20005;-76
2022/08/11 10:11:59;;;;;;;2.75;1.67;;;;;;;;;;7394036;19;20007;-76
2022/08/11 10:17:13;;;;;;;1.98;1.55;;;;;;;;;;7398905;19;20493;-77
2022/08/11 10:19:41;;;;;;;1.88;1.58;;;;;;;;;;7394369;19;20010;-76
2022/08/11 10:27:40;;;;;;;1.23;1.15;;;;;;;;;;7393744;19;20035;-79
2022/08/11 10:35:35;;;;;;;2.03;1.60;;;;;;;;;;7395342;19;20112;-76
2022/08/11 10:38:01;;;;;;;2.58;1.70;;;;;;;;;;7395757;19;20002;-75
2022/08/11 10:40:27;;;;;;;1.73;1.50;;;;;;;;;;7389694;19;20643;-79
2022/08/11 10:43:04;;;;;;;3.17;1.60;;;;;;;;;;7386928;19;20011;-79
2022/08/11 10:48:19;;;;;;;1.50;1.40;;;;;;;;;;7387977;19;20016;-78
2022/08/11 10:59:07;;;;;;;2.97;1.50;;;;;;;;;;7389382;19;20009;-78
2022/08/11 11:01:36;;;;;;;2.13;1.40;;;;;;;;;;7386386;19;20027;-77
2022/08/11 11:04:19;;;;;;;1.57;1.40;;;;;;;;;;7385967;19;20010;-77
2022/08/11 11:07:00;;;;;;;1.67;1.38;;;;;;;;;;7387753;19;20097;-78
2022/08/11 11:09:31;;;;;;;1.30;1.20;;;;;;;;;;7391054;19;20019;-74
2022/08/11 11:18:05;;;;;;;1.45;1.35;;;;;;;;;;7383985;19;20086;-78
2022/08/11 11:20:42;;;;;;;1.58;1.33;;;;;;;;;;7383898;19;20009;-77
2022/08/11 11:23:24;;;;;;;2.00;1.30;;;;;;;;;;7383646;19;20010;-76
2022/08/11 11:26:09;;;;;;;2.28;1.65;;;;;;;;;;7386924;19;20010;-78
2022/08/11 11:28:50;;;;;;;3.13;1.60;;;;;;;;;;7386395;19;20010;-77
2022/08/11 11:31:52;;;;;;;2.22;1.60;;;;;;;;;;7387782;19;20105;-77
2022/08/11 11:35:00;;;;;;;1.60;1.48;;;;;;;;;;7385843;19;20014;-80
2022/08/11 11:37:31;;;;;;;2.10;1.80;;;;;;;;;;7389796;19;20026;-79
2022/08/11 11:39:57;;;;;;;1.65;1.40;;;;;;;;;;7387423;19;20046;-79
2022/08/11 11:42:24;;;;;;;1.45;1.30;;;;;;;;;;7387582;19;19994;-78
2022/08/11 11:44:51;;;;;;;2.50;1.70;;;;;;;;;;7387562;19;20772;-79
2022/08/11 11:47:21;;;;;;;2.08;1.50;;;;;;;;;;7387269;19;20103;-78
2022/08/11 11:49:48;;;;;;;2.05;1.50;;;;;;;;;;7386773;19;20031;-78
2022/08/11 11:52:17;;;;;;;1.83;1.58;;;;;;;;;;7383868;19;20480;-77
2022/08/11 11:54:44;;;;;;;3.45;2.25;;;;;;;;;;7386874;19;20007;-77
2022/08/11 12:02:42;;;;;;;1.77;1.45;;;;;;;;;;7388443;19;20019;-76
2022/08/11 12:05:09;;;;;;;2.00;1.50;;;;;;;;;;7381496;19;20013;-76
2022/08/11 12:10:20;;;;;;;1.63;1.40;;;;;;;;;;7386858;19;20013;-77
2022/08/11 12:15:30;;;;;;;2.38;1.60;;;;;;;;;;7384881;19;20013;-79
2022/08/11 12:17:58;;;;;;;2.15;1.63;;;;;;;;;;7385585;19;20006;-77
2022/08/11 12:20:23;;;;;;;2.35;1.50;;;;;;;;;;7386484;19;20007;-77
2022/08/11 12:28:21;;;;;;;2.03;1.50;;;;;;;;;;7392090;19;20014;-77
2022/08/11 12:30:48;;;;;;;2.40;1.60;;;;;;;;;;7389791;19;20555;-78
2022/08/11 12:33:14;;;;;;;2.17;1.70;;;;;;;;;;7387537;19;20002;-79
2022/08/11 12:35:40;;;;;;;1.42;1.33;;;;;;;;;;7389680;19;20003;-79
2022/08/11 12:38:08;;;;;;;1.52;1.38;;;;;;;;;;7390706;19;20006;-78
2022/08/11 12:46:22;;;;;;;1.77;1.50;;;;;;;;;;7391146;19;20013;-78
2022/08/11 12:52:00;;;;;;;3.92;1.80;;;;;;;;;;7389449;19;20010;-77
2022/08/11 12:54:34;;;;;;;1.90;1.70;;;;;;;;;;7389554;19;20027;-76
2022/08/11 13:05:20;;;;;;;2.15;1.40;;;;;;;;;;7390785;19;20013;-75
2022/08/11 13:07:46;;;;;;;1.95;1.52;;;;;;;;;;7386456;19;20007;-77
2022/08/11 13:12:46;;;;;;;1.85;1.50;;;;;;;;;;7387642;19;20016;-76
2022/08/11 13:13:00;;;;;;;2.22;1.88;;;;;;;;;;7389196;19;20003;-76
2022/08/11 13:15:25;;;;;;;2.97;1.70;;;;;;;;;;7383679;19;20035;-77
2022/08/11 13:17:53;;;;;;;2.72;1.75;;;;;;;;;;7387917;19;20472;-77
2022/08/11 13:20:22;;;;;;;1.70;1.60;;;;;;;;;;7388117;19;20006;-77
2022/08/11 13:22:50;;;;;;;3.45;2.10;;;;;;;;;;7387520;19;20019;-77
2022/08/11 13:25:21;;;;;;;2.53;1.70;;;;;;;;;;7389998;19;20019;-79
2022/08/11 13:27:49;;;;;;;2.83;1.73;;;;;;;;;;7388149;19;20002;-78
2022/08/11 13:33:02;;;;;;;3.88;2.53;;;;;;;;;;7389977;19;20010;-78
2022/08/11 13:35:29;;;;;;;2.33;1.60;;;;;;;;;;7384788;19;20022;-74
2022/08/11 13:37:55;;;;;;;2.10;1.70;;;;;;;;;;7386573;19;20010;-74
2022/08/11 13:40:21;;;;;;;2.42;1.60;;;;;;;;;;7387872;19;20230;-76
2022/08/11 13:42:48;;;;;;;2.08;1.60;;;;;;;;;;7387886;19;20454;-77
2022/08/11 13:45:14;;;;;;;2.22;1.80;;;;;;;;;;7389665;19;20009;-76
2022/08/11 13:47:41;;;;;;;2.10;1.50;;;;;;;;;;7386188;19;20019;-71
2022/08/11 13:50:07;;;;;;;2.70;1.80;;;;;;;;;;7386852;19;19998;-71
2022/08/11 13:52:35;;;;;;;1.92;1.60;;;;;;;;;;7383969;19;19999;-71
2022/08/11 13:55:01;;;;;;;2.20;1.60;;;;;;;;;;7383631;19;20464;-72
2022/08/11 13:57:32;;;;;;;4.10;1.70;;;;;;;;;;7387406;19;20018;-72
2022/08/11 14:00:08;;;;;;;2.75;1.90;;;;;;;;;;7385104;19;19998;-71
2022/08/11 14:02:40;;;;;;;2.47;1.65;;;;;;;;;;7382847;19;20006;-71
2022/08/11 14:05:14;;;;;;;2.08;1.67;;;;;;;;;;7386112;19;20027;-71
2022/08/11 14:07:47;;;;;;;2.70;1.70;;;;;;;;;;7386769;19;20361;-70
2022/08/11 14:10:14;;;;;;;2.13;1.90;;;;;;;;;;7380797;19;20667;-71
2022/08/11 14:15:41;;;;;;;;;;;;;;;;;;7382534;19;20010;-72
2022/08/11 14:18:12;;;;;;;3.00;1.67;;;;;;;;;;7385367;19;19926;-71
2022/08/11 14:23:33;;;;;;;1.83;1.55;;;;;;;;;;7389350;19;20014;-71
2022/08/11 14:28:43;;;;;;;2.05;1.50;;;;;;;;;;7385191;19;20028;-72
2022/08/11 14:31:09;;;;;;;2.50;1.70;;;;;;;;;;7382821;19;20002;-72
2022/08/11 14:33:36;;;;;;;2.88;1.90;;;;;;;;;;7387646;19;19998;-72
2022/08/11 14:36:05;;;;;;;1.80;1.50;;;;;;;;;;7391503;19;20555;-71
2022/08/11 14:38:33;;;;;;;2.35;1.52;;;;;;;;;;7392189;19;20033;-71
2022/08/11 14:49:13;;;;;;;1.65;1.50;;;;;;;;;;7392067;19;20026;-71
2022/08/11 14:51:40;;;;;;;4.00;2.20;;;;;;;;;;7388553;19;20099;-70
2022/08/11 14:56:50;;;;;;;2.38;1.55;;;;;;;;;;7391159;19;20026;-68
2022/08/11 14:59:16;;;;;;;2.28;1.40;;;;;;;;;;7387835;19;20015;-69
2022/08/11 15:04:29;;;;;;;1.95;1.55;;;;;;;;;;7387594;19;20002;-68
2022/08/11 15:06:55;;;;;;;2.40;1.55;;;;;;;;;;7390674;19;19995;-67
2022/08/11 15:09:20;;;;;;;2.03;1.52;;;;;;;;;;7390446;19;19998;-67
2022/08/11 15:17:18;;;;;;;3.25;1.70;;;;;;;;;;7393045;19;20029;-68
2022/08/11 15:25:12;;;;;;;2.08;1.40;;;;;;;;;;7393769;19;20739;-68
2022/08/11 15:38:58;;;;;;;1.40;1.30;;;;;;;;;;7393461;19;20020;-68
2022/08/11 15:47:07;;;;;;;2.20;1.50;;;;;;;;;;7393756;19;20019;-68
2022/08/11 15:49:38;;;;;;;1.65;1.35;;;;;;;;;;7389970;19;20003;-68
2022/08/11 15:52:09;;;;;;;1.55;1.42;;;;;;;;;;7390763;19;20496;-68
2022/08/11 15:54:39;;;;;;;6.97;3.58;;;;;;;;;;7391118;19;20014;-74
2022/08/11 15:57:05;;;;;;;5.07;3.35;;;;;;;;;;7394051;19;20062;-69
2022/08/11 16:05:12;;;;;;;1.95;1.55;;;;;;;;;;7393620;19;20568;-69
2022/08/11 16:07:41;;;;;;;1.77;1.38;;;;;;;;;;7387330;19;20005;-69
2022/08/11 16:10:14;;;;;;;2.75;1.38;;;;;;;;;;7391816;19;20005;-69
2022/08/11 16:16:12;;;;;;;1.55;1.40;;;;;;;;;;7390090;19;20030;-69
2022/08/11 16:18:15;;;;;;;2.15;1.55;;;;;;;;;;7388625;19;20420;-68
2022/08/11 16:20:42;;;;;;;1.40;1.30;;;;;;;;;;7385950;19;20329;-68
2022/08/11 16:23:09;;;;;;;2.03;1.60;;;;;;;;;;7391263;19;19995;-68
2022/08/11 16:25:34;;;;;;;2.22;1.58;;;;;;;;;;7387815;19;19994;-68
2022/08/11 16:28:05;;;;;;;2.30;1.80;;;;;;;;;;7389054;19;20501;-69
2022/08/11 16:30:33;;;;;;;2.00;1.60;;;;;;;;;;7388689;19;20035;-72
2022/08/11 16:32:59;;;;;;;2.50;1.67;;;;;;;;;;7389474;19;19994;-67
2022/08/11 16:40:58;;;;;;;1.50;1.40;;;;;;;;;;7382693;19;20004;-66
2022/08/11 16:49:01;;;;;;;2.33;1.52;;;;;;;;;;7384753;19;20030;-66
2022/08/11 16:51:27;;;;;;;1.77;1.50;;;;;;;;;;7382385;19;20002;-65
2022/08/11 16:53:52;;;;;;;2.10;1.67;;;;;;;;;;7384483;19;20031;-66
2022/08/11 16:56:22;;;;;;;5.00;2.65;;;;;;;;;;7385108;19;19994;-67
2022/08/11 17:01:37;;;;;;;1.73;1.38;;;;;;;;;;7385700;19;20001;-67
2022/08/11 17:18:11;;;;;;;1.95;1.50;;;;;;;;;;7386344;19;20083;-67
2022/08/11 17:20:38;;;;;;;2.20;1.53;;;;;;;;;;7385768;19;19995;-67
2022/08/11 17:25:50;;;;;;;2.55;1.80;;;;;;;;;;7385915;19;20294;-67
2022/08/11 17:28:19;;;;;;;2.33;1.60;;;;;;;;;;7386108;19;20054;-67
2022/08/11 17:36:18;;;;;;;1.42;1.20;;;;;;;;;;7386978;19;20037;-66
2022/08/11 17:38:46;;;;;;;7.15;4.25;;;;;;;;;;7385328;19;20002;-66
2022/08/11 17:49:27;;;;;;;1.52;1.40;;;;;;;;;;7385037;19;20006;-66
2022/08/11 18:00:08;;;;;;;1.85;1.40;;;;;;;;;;7384966;19;20019;-66
2022/08/11 18:05:36;;;;;;;2.05;1.63;;;;;;;;;;7382309;19;19999;-66
